Time;durP1;ratioP1;P1;durP2;ratioP2;P2;SDS_P1;SDS_P2;PMS_P1;PMS_P2;Temp;Humidity;BMP_temperature;BMP_pressure;BME280_temperature;BME280_humidity;BME280_pressure;Samples;Min_cycle;Max_cycle;Signal;HPM_P1;HPM_P2
2021/06/13 00:01:43;;;;;;;;;;;12.70;99.90;;;;;;5115103;28;19903;-75
2021/06/13 00:04:08;;;;;;;;;;;12.80;99.90;;;;;;5115839;28;19904;-75
2021/06/13 00:06:33;;;;;;;;;;;12.70;99.90;;;;;;5115574;28;19994;-76
2021/06/13 00:08:59;;;;;;;;;;;12.70;99.90;;;;;;5114854;28;19926;-75
2021/06/13 00:11:24;;;;;;;;;;;12.60;99.90;;;;;;5115730;28;20002;-76
2021/06/13 00:13:50;;;;;;;;;;;12.60;99.90;;;;;;5116849;28;19911;-76
2021/06/13 00:16:17;;;;;;;;;;;12.60;99.90;;;;;;5119635;28;19927;-76
2021/06/13 00:18:42;;;;;;;;;;;12.60;99.90;;;;;;5115802;28;19904;-75
2021/06/13 00:21:08;;;;;;;;;;;12.50;99.90;;;;;;5115472;28;19910;-75
2021/06/13 00:23:38;;;;;;;;;;;12.50;99.90;;;;;;5114695;28;19927;-75
2021/06/13 00:26:03;;;;;;;;;;;12.50;99.90;;;;;;5119149;28;20424;-75
2021/06/13 00:28:28;;;;;;;;;;;12.50;99.90;;;;;;5117003;28;19907;-75
2021/06/13 00:30:54;;;;;;;;;;;12.50;99.90;;;;;;5121780;28;19959;-76
2021/06/13 00:33:19;;;;;;;;;;;12.50;99.90;;;;;;5119271;28;19912;-75
2021/06/13 00:35:45;;;;;;;;;;;12.50;99.90;;;;;;5115235;28;19904;-75
2021/06/13 00:38:10;;;;;;;;;;;12.50;99.90;;;;;;5114045;28;19903;-76
2021/06/13 00:40:36;;;;;;;;;;;12.50;99.90;;;;;;5114850;28;19904;-75
2021/06/13 00:43:02;;;;;;;;;;;12.50;99.90;;;;;;5115209;28;20375;-76
2021/06/13 00:45:28;;;;;;;;;;;12.50;99.90;;;;;;5114523;28;19910;-76
2021/06/13 00:47:53;;;;;;;;;;;12.50;99.90;;;;;;5115266;28;19904;-75
2021/06/13 00:50:25;;;;;;;;;;;12.50;99.90;;;;;;5114814;28;19930;-75
2021/06/13 00:52:50;;;;;;;;;;;12.50;99.90;;;;;;5113557;28;20320;-75
2021/06/13 00:55:16;;;;;;;;;;;12.40;99.90;;;;;;5114956;28;20002;-75
2021/06/13 00:57:41;;;;;;;;;;;12.40;99.90;;;;;;5114406;28;20358;-73
2021/06/13 01:00:07;;;;;;;;;;;12.40;99.90;;;;;;5113934;28;20344;-76
2021/06/13 01:02:33;;;;;;;;;;;12.40;99.90;;;;;;5114825;28;19916;-76
2021/06/13 01:04:59;;;;;;;;;;;12.50;99.90;;;;;;5114190;28;20427;-76
2021/06/13 01:07:32;;;;;;;;;;;12.40;99.90;;;;;;5113985;28;19908;-76
2021/06/13 01:09:58;;;;;;;;;;;12.40;99.90;;;;;;5114264;28;20363;-75
2021/06/13 01:12:42;;;;;;;;;;;12.40;99.90;;;;;;5113529;28;19975;-76
2021/06/13 01:15:11;;;;;;;;;;;12.40;99.90;;;;;;5095854;28;19912;-75
2021/06/13 01:17:46;;;;;;;;;;;12.40;99.90;;;;;;5113758;28;20366;-75
2021/06/13 01:20:24;;;;;;;;;;;12.30;99.90;;;;;;5113161;28;19949;-76
2021/06/13 01:23:08;;;;;;;;;;;12.30;99.90;;;;;;5113996;28;19939;-75
2021/06/13 01:25:34;;;;;;;;;;;12.40;99.90;;;;;;5113754;28;19951;-74
2021/06/13 01:28:25;;;;;;;;;;;12.40;99.90;;;;;;5113234;28;19946;-75
2021/06/13 01:30:53;;;;;;;;;;;12.30;99.90;;;;;;5086498;28;19912;-75
2021/06/13 01:33:18;;;;;;;;;;;12.30;99.90;;;;;;5113060;28;19915;-75
2021/06/13 01:35:45;;;;;;;;;;;12.30;99.90;;;;;;5114028;28;19916;-75
2021/06/13 01:38:11;;;;;;;;;;;12.30;99.90;;;;;;5113919;28;19911;-75
2021/06/13 01:40:37;;;;;;;;;;;12.30;99.90;;;;;;5112626;28;19904;-76
2021/06/13 01:43:05;;;;;;;;;;;12.30;99.90;;;;;;5113515;28;19911;-76
2021/06/13 01:45:33;;;;;;;;;;;12.30;99.90;;;;;;5113973;28;19904;-76
2021/06/13 01:47:59;;;;;;;;;;;12.20;99.90;;;;;;5113137;28;19903;-76
2021/06/13 01:50:26;;;;;;;;;;;12.20;99.90;;;;;;5113767;28;19907;-76
2021/06/13 01:52:52;;;;;;;;;;;12.20;99.90;;;;;;5113833;28;19915;-75
2021/06/13 01:55:20;;;;;;;;;;;12.20;99.90;;;;;;5113062;28;19939;-75
2021/06/13 01:57:46;;;;;;;;;;;12.10;99.90;;;;;;5113931;28;19904;-75
2021/06/13 02:00:12;;;;;;;;;;;12.10;99.90;;;;;;5113726;28;19904;-75
2021/06/13 02:02:39;;;;;;;;;;;12.10;99.90;;;;;;5113104;28;20359;-75
2021/06/13 02:05:06;;;;;;;;;;;12.10;99.90;;;;;;5113539;28;19904;-75
2021/06/13 02:07:36;;;;;;;;;;;12.10;99.90;;;;;;5113541;28;19904;-75
2021/06/13 02:10:04;;;;;;;;;;;12.10;99.90;;;;;;5112812;28;19904;-75
2021/06/13 02:12:31;;;;;;;;;;;12.00;99.90;;;;;;5113746;28;19904;-75
2021/06/13 02:14:57;;;;;;;;;;;12.00;99.90;;;;;;5113467;28;19912;-75
2021/06/13 02:17:22;;;;;;;;;;;12.00;99.90;;;;;;5112886;28;20301;-76
2021/06/13 02:19:48;;;;;;;;;;;12.00;99.90;;;;;;5113356;28;19911;-76
2021/06/13 02:22:18;;;;;;;;;;;12.00;99.90;;;;;;5114293;28;20305;-75
2021/06/13 02:24:44;;;;;;;;;;;12.00;99.90;;;;;;5115318;28;19904;-76
2021/06/13 02:27:12;;;;;;;;;;;12.00;99.90;;;;;;5113578;28;19908;-75
2021/06/13 02:29:39;;;;;;;;;;;12.00;99.90;;;;;;5113293;28;19903;-75
2021/06/13 02:32:05;;;;;;;;;;;12.00;99.90;;;;;;5113593;28;19904;-75
2021/06/13 02:34:31;;;;;;;;;;;11.90;99.90;;;;;;5117664;28;19918;-76
2021/06/13 02:36:59;;;;;;;;;;;12.00;99.90;;;;;;5113574;28;19998;-74
2021/06/13 02:39:24;;;;;;;;;;;12.00;99.90;;;;;;5123706;28;19998;-74
2021/06/13 02:41:50;;;;;;;;;;;12.00;99.90;;;;;;5114356;28;19946;-76
2021/06/13 02:44:16;;;;;;;;;;;12.00;99.90;;;;;;5112733;28;20359;-75
2021/06/13 02:46:41;;;;;;;;;;;11.90;99.90;;;;;;5113717;28;19904;-75
2021/06/13 02:49:07;;;;;;;;;;;11.90;99.90;;;;;;5113269;28;19923;-74
2021/06/13 02:51:39;;;;;;;;;;;11.90;99.90;;;;;;5112474;28;20405;-75
2021/06/13 02:54:07;;;;;;;;;;;11.90;99.90;;;;;;5116633;28;19959;-75
2021/06/13 02:56:44;;;;;;;;;;;11.90;99.90;;;;;;5116599;28;19904;-75
2021/06/13 02:59:29;;;;;;;;;;;11.90;99.90;;;;;;5116264;28;19904;-75
2021/06/13 03:01:55;;;;;;;;;;;11.90;99.90;;;;;;5116804;28;19933;-76
2021/06/13 03:04:22;;;;;;;;;;;11.90;99.90;;;;;;5116758;28;19904;-75
2021/06/13 03:06:51;;;;;;;;;;;11.90;99.90;;;;;;5116123;28;19903;-76
2021/06/13 03:09:17;;;;;;;;;;;11.90;99.90;;;;;;5116744;28;19903;-76
2021/06/13 03:11:44;;;;;;;;;;;11.90;99.90;;;;;;5115775;28;20355;-74
2021/06/13 03:14:10;;;;;;;;;;;11.90;99.90;;;;;;5116299;28;20014;-75
2021/06/13 03:16:36;;;;;;;;;;;11.90;99.90;;;;;;5116782;28;20335;-75
2021/06/13 03:19:04;;;;;;;;;;;11.90;99.90;;;;;;5114975;28;19904;-76
2021/06/13 03:21:30;;;;;;;;;;;11.80;99.90;;;;;;5116240;28;19915;-75
2021/06/13 03:23:56;;;;;;;;;;;11.90;99.90;;;;;;5116333;28;19995;-75
2021/06/13 03:26:22;;;;;;;;;;;11.90;99.90;;;;;;5115612;28;19903;-75
2021/06/13 03:28:52;;;;;;;;;;;11.90;99.90;;;;;;5116695;28;19998;-76
2021/06/13 03:31:18;;;;;;;;;;;11.80;99.90;;;;;;5116231;28;19990;-76
2021/06/13 03:33:44;;;;;;;;;;;11.90;99.90;;;;;;5115780;28;19912;-75
2021/06/13 03:36:10;;;;;;;;;;;11.90;99.90;;;;;;5116269;28;19985;-75
2021/06/13 03:38:35;;;;;;;;;;;11.90;99.90;;;;;;5116130;28;19947;-75
2021/06/13 03:41:01;;;;;;;;;;;11.90;99.90;;;;;;5116302;28;19904;-74
2021/06/13 03:43:30;;;;;;;;;;;11.90;99.90;;;;;;5116080;28;20317;-75
2021/06/13 03:45:56;;;;;;;;;;;11.90;99.90;;;;;;5116077;28;19950;-76
2021/06/13 03:48:21;;;;;;;;;;;11.90;99.90;;;;;;5115443;28;19904;-76
2021/06/13 03:50:47;;;;;;;;;;;11.90;99.90;;;;;;5116557;28;19904;-75
2021/06/13 03:53:13;;;;;;;;;;;11.90;99.90;;;;;;5115761;28;19919;-76
2021/06/13 03:55:39;;;;;;;;;;;11.90;99.90;;;;;;5115481;28;19903;-76
2021/06/13 03:58:05;;;;;;;;;;;11.90;99.90;;;;;;5115961;28;20262;-76
2021/06/13 04:00:32;;;;;;;;;;;11.90;99.90;;;;;;5115539;28;20317;-75
2021/06/13 04:02:58;;;;;;;;;;;12.00;99.90;;;;;;5115053;28;19904;-76
2021/06/13 04:05:24;;;;;;;;;;;12.00;99.90;;;;;;5115125;28;19907;-75
2021/06/13 04:07:50;;;;;;;;;;;12.00;99.90;;;;;;5115111;28;19904;-75
2021/06/13 04:10:17;;;;;;;;;;;12.10;99.90;;;;;;5115361;28;19903;-75
2021/06/13 04:12:44;;;;;;;;;;;12.10;99.90;;;;;;5115449;28;19987;-76
2021/06/13 04:15:10;;;;;;;;;;;12.10;99.90;;;;;;5114668;28;19937;-75
2021/06/13 04:17:37;;;;;;;;;;;12.10;99.90;;;;;;5115336;28;19904;-76
2021/06/13 04:20:04;;;;;;;;;;;12.20;99.90;;;;;;5115823;28;19912;-75
2021/06/13 04:22:30;;;;;;;;;;;12.20;99.90;;;;;;5114636;28;19910;-74
2021/06/13 04:24:56;;;;;;;;;;;12.20;99.90;;;;;;5115098;28;19984;-75
2021/06/13 04:27:23;;;;;;;;;;;12.20;99.90;;;;;;5115424;28;19976;-76
2021/06/13 04:29:49;;;;;;;;;;;12.30;99.90;;;;;;5115891;28;19907;-77
2021/06/13 04:32:15;;;;;;;;;;;12.30;99.90;;;;;;5118931;28;20348;-74
2021/06/13 04:34:41;;;;;;;;;;;12.40;99.90;;;;;;5115173;28;19919;-74
2021/06/13 04:37:07;;;;;;;;;;;12.40;99.90;;;;;;5113990;28;19904;-76
2021/06/13 04:39:33;;;;;;;;;;;12.50;99.90;;;;;;5115214;28;19911;-76
2021/06/13 04:42:01;;;;;;;;;;;12.50;99.90;;;;;;5118769;28;20417;-76
2021/06/13 04:44:27;;;;;;;;;;;12.60;99.90;;;;;;5096178;28;19927;-76
2021/06/13 04:46:52;;;;;;;;;;;12.60;99.90;;;;;;5123006;28;20323;-75
2021/06/13 04:49:18;;;;;;;;;;;12.60;99.90;;;;;;5115495;28;20319;-76
2021/06/13 04:51:46;;;;;;;;;;;12.70;99.90;;;;;;5114220;28;19985;-75
2021/06/13 04:54:15;;;;;;;;;;;12.80;99.90;;;;;;5114283;28;19958;-76
2021/06/13 04:56:49;;;;;;;;;;;12.80;99.90;;;;;;5114680;28;19950;-77
2021/06/13 04:59:14;;;;;;;;;;;12.90;99.90;;;;;;5113476;28;19904;-74
2021/06/13 05:01:41;;;;;;;;;;;13.00;99.90;;;;;;5114154;28;20041;-75
2021/06/13 05:04:07;;;;;;;;;;;13.00;99.90;;;;;;5113963;28;19927;-75
2021/06/13 05:06:32;;;;;;;;;;;13.10;99.90;;;;;;5114276;28;20353;-75
2021/06/13 05:08:58;;;;;;;;;;;13.10;99.90;;;;;;5114282;28;19904;-75
2021/06/13 05:11:24;;;;;;;;;;;13.20;99.90;;;;;;5113673;28;20028;-75
2021/06/13 05:13:49;;;;;;;;;;;13.30;99.90;;;;;;5114015;28;19970;-75
2021/06/13 05:16:15;;;;;;;;;;;13.30;99.90;;;;;;5113309;28;19957;-75
2021/06/13 05:18:40;;;;;;;;;;;13.40;99.90;;;;;;5113455;28;20362;-75
2021/06/13 05:21:06;;;;;;;;;;;13.40;99.90;;;;;;5114212;28;19904;-74
2021/06/13 05:23:31;;;;;;;;;;;13.50;99.90;;;;;;5114212;28;19946;-77
2021/06/13 05:26:00;;;;;;;;;;;13.40;99.90;;;;;;5113487;28;19927;-75
2021/06/13 05:28:25;;;;;;;;;;;13.60;99.90;;;;;;5114160;28;20279;-76
2021/06/13 05:30:51;;;;;;;;;;;13.60;99.90;;;;;;5114098;28;19903;-75
2021/06/13 05:33:17;;;;;;;;;;;13.60;99.90;;;;;;5113171;28;19908;-75
2021/06/13 05:35:42;;;;;;;;;;;13.70;99.90;;;;;;5114065;28;19908;-75
2021/06/13 05:38:08;;;;;;;;;;;13.80;99.90;;;;;;5114127;28;19908;-75
2021/06/13 05:40:34;;;;;;;;;;;13.80;99.90;;;;;;5113213;28;19904;-74
2021/06/13 05:43:00;;;;;;;;;;;13.90;99.90;;;;;;5095376;28;19918;-74
2021/06/13 05:45:26;;;;;;;;;;;13.90;99.90;;;;;;5113785;28;19904;-75
2021/06/13 05:47:52;;;;;;;;;;;14.00;99.90;;;;;;5113403;28;19961;-74
2021/06/13 05:50:21;;;;;;;;;;;14.00;99.90;;;;;;5112687;28;19903;-75
2021/06/13 05:52:46;;;;;;;;;;;14.00;99.90;;;;;;5113406;28;20003;-74
2021/06/13 05:55:13;;;;;;;;;;;14.00;99.90;;;;;;5112800;28;19994;-75
2021/06/13 05:57:38;;;;;;;;;;;14.20;99.90;;;;;;5113698;28;19904;-76
2021/06/13 06:00:04;;;;;;;;;;;14.10;99.90;;;;;;5113851;28;19911;-76
2021/06/13 06:02:30;;;;;;;;;;;14.20;99.90;;;;;;5113080;28;20259;-76
2021/06/13 06:04:55;;;;;;;;;;;14.20;99.90;;;;;;5113377;28;19907;-75
2021/06/13 06:07:21;;;;;;;;;;;14.20;99.90;;;;;;5113538;28;19910;-75
2021/06/13 06:09:46;;;;;;;;;;;14.30;99.90;;;;;;5113251;28;19911;-76
2021/06/13 06:12:12;;;;;;;;;;;14.30;99.90;;;;;;5113708;28;20244;-75
2021/06/13 06:14:38;;;;;;;;;;;14.40;99.90;;;;;;5112653;28;20352;-75
2021/06/13 06:17:04;;;;;;;;;;;14.50;99.90;;;;;;5113669;28;19903;-76
2021/06/13 06:19:29;;;;;;;;;;;14.50;99.90;;;;;;5113425;28;19998;-76
2021/06/13 06:21:56;;;;;;;;;;;14.70;99.90;;;;;;5112461;28;19904;-75
2021/06/13 06:24:22;;;;;;;;;;;14.70;99.90;;;;;;5113136;28;19903;-75
2021/06/13 06:26:47;;;;;;;;;;;14.80;99.90;;;;;;5113497;28;19911;-74
2021/06/13 06:29:13;;;;;;;;;;;14.90;99.90;;;;;;5116146;28;19903;-75
2021/06/13 06:31:38;;;;;;;;;;;14.90;99.90;;;;;;5117184;28;20217;-75
2021/06/13 06:34:04;;;;;;;;;;;15.00;99.90;;;;;;5117039;28;19964;-75
2021/06/13 06:36:29;;;;;;;;;;;15.10;99.90;;;;;;5116416;28;19904;-75
2021/06/13 06:38:55;;;;;;;;;;;15.00;99.90;;;;;;5126902;28;19903;-75
2021/06/13 06:41:20;;;;;;;;;;;15.00;99.90;;;;;;5118561;28;19904;-75
2021/06/13 06:43:46;;;;;;;;;;;15.10;99.90;;;;;;5116533;28;19952;-74
2021/06/13 06:46:11;;;;;;;;;;;15.00;99.90;;;;;;5116976;28;19910;-74
2021/06/13 06:48:37;;;;;;;;;;;15.00;99.90;;;;;;5122016;28;19903;-74
2021/06/13 06:51:02;;;;;;;;;;;15.00;99.90;;;;;;5120656;28;19922;-75
2021/06/13 06:53:28;;;;;;;;;;;15.00;99.90;;;;;;5124261;28;20347;-76
2021/06/13 06:55:53;;;;;;;;;;;15.10;99.90;;;;;;5122878;28;19911;-75
2021/06/13 06:58:19;;;;;;;;;;;15.10;99.90;;;;;;5116140;28;19921;-75
2021/06/13 07:00:44;;;;;;;;;;;15.10;99.90;;;;;;5116530;28;19911;-74
2021/06/13 07:03:13;;;;;;;;;;;15.00;99.90;;;;;;5116553;28;20312;-74
2021/06/13 07:05:39;;;;;;;;;;;15.10;99.90;;;;;;5115942;28;20236;-76
2021/06/13 07:08:04;;;;;;;;;;;15.10;99.90;;;;;;5116655;28;19904;-76
2021/06/13 07:10:30;;;;;;;;;;;15.20;99.90;;;;;;5117184;28;19903;-76
2021/06/13 07:12:55;;;;;;;;;;;15.20;99.90;;;;;;5117569;28;19934;-76
2021/06/13 07:15:21;;;;;;;;;;;15.30;99.90;;;;;;5117141;28;20298;-75
2021/06/13 07:17:46;;;;;;;;;;;15.40;99.90;;;;;;5115803;28;19950;-74
2021/06/13 07:20:15;;;;;;;;;;;15.50;99.90;;;;;;5116160;28;19903;-75
2021/06/13 07:22:41;;;;;;;;;;;15.40;99.90;;;;;;5116151;28;19910;-75
2021/06/13 07:25:07;;;;;;;;;;;15.50;99.90;;;;;;5116068;28;20331;-75
2021/06/13 07:27:33;;;;;;;;;;;15.50;99.90;;;;;;5116368;28;19903;-75
2021/06/13 07:29:59;;;;;;;;;;;15.50;99.90;;;;;;5115992;28;19908;-75
2021/06/13 07:32:24;;;;;;;;;;;15.60;99.90;;;;;;5115564;28;20047;-76
2021/06/13 07:34:50;;;;;;;;;;;15.70;99.90;;;;;;5116094;28;19918;-74
2021/06/13 07:37:15;;;;;;;;;;;15.70;99.90;;;;;;5116322;28;19911;-74
2021/06/13 07:39:41;;;;;;;;;;;15.70;99.90;;;;;;5114502;28;19903;-75
2021/06/13 07:42:08;;;;;;;;;;;15.80;99.90;;;;;;5116322;28;20347;-76
2021/06/13 07:44:33;;;;;;;;;;;15.80;99.90;;;;;;5116252;28;19904;-75
2021/06/13 07:46:59;;;;;;;;;;;15.90;99.90;;;;;;5115837;28;20263;-74
2021/06/13 07:49:25;;;;;;;;;;;15.90;99.90;;;;;;5115630;28;19908;-77
2021/06/13 07:51:50;;;;;;;;;;;15.90;99.90;;;;;;5115658;28;19982;-75
2021/06/13 07:54:16;;;;;;;;;;;16.00;99.90;;;;;;5114744;28;19915;-75
2021/06/13 07:56:44;;;;;;;;;;;16.10;99.90;;;;;;5115891;28;19960;-75
2021/06/13 07:59:09;;;;;;;;;;;16.10;99.90;;;;;;5115592;28;19994;-75
2021/06/13 08:01:35;;;;;;;;;;;16.20;99.90;;;;;;5114651;28;19984;-75
2021/06/13 08:04:01;;;;;;;;;;;16.30;99.90;;;;;;5115422;28;19904;-74
2021/06/13 08:06:26;;;;;;;;;;;16.30;99.90;;;;;;5115299;28;20284;-73
2021/06/13 08:08:52;;;;;;;;;;;16.40;99.90;;;;;;5114477;28;20003;-75
2021/06/13 08:11:17;;;;;;;;;;;16.40;99.90;;;;;;5115452;28;19903;-75
2021/06/13 08:13:43;;;;;;;;;;;16.50;99.90;;;;;;5115494;28;19908;-75
2021/06/13 08:16:09;;;;;;;;;;;16.50;99.90;;;;;;5114407;28;20379;-75
2021/06/13 08:18:34;;;;;;;;;;;16.60;99.90;;;;;;5115369;28;19908;-75
2021/06/13 08:21:00;;;;;;;;;;;16.60;99.90;;;;;;5096869;28;19910;-76
2021/06/13 08:23:25;;;;;;;;;;;16.60;99.90;;;;;;5114574;28;19945;-76
2021/06/13 08:25:51;;;;;;;;;;;16.70;99.90;;;;;;5115055;28;20005;-75
2021/06/13 08:28:19;;;;;;;;;;;16.80;99.90;;;;;;5114300;28;19904;-75
2021/06/13 08:30:46;;;;;;;;;;;16.80;99.90;;;;;;5115107;28;19984;-75
2021/06/13 08:33:11;;;;;;;;;;;16.80;99.90;;;;;;5114764;28;19938;-75
2021/06/13 08:35:37;;;;;;;;;;;16.80;99.90;;;;;;5113829;28;19939;-75
2021/06/13 08:38:04;;;;;;;;;;;16.80;99.90;;;;;;5114811;28;20323;-75
2021/06/13 08:40:31;;;;;;;;;;;16.80;99.90;;;;;;5114707;28;19907;-75
2021/06/13 08:42:57;;;;;;;;;;;16.90;99.90;;;;;;5114021;28;19903;-75
2021/06/13 08:45:23;;;;;;;;;;;17.00;99.90;;;;;;5120033;28;20326;-75
2021/06/13 08:47:50;;;;;;;;;;;17.10;99.90;;;;;;5120529;28;19931;-75
2021/06/13 08:50:16;;;;;;;;;;;17.20;99.90;;;;;;5113950;28;19904;-75
2021/06/13 08:52:41;;;;;;;;;;;17.40;99.90;;;;;;5114648;28;20398;-76
2021/06/13 08:55:08;;;;;;;;;;;17.40;99.90;;;;;;5115824;28;19957;-76
2021/06/13 08:57:36;;;;;;;;;;;17.40;99.90;;;;;;5117795;28;20374;-75
2021/06/13 09:00:05;;;;;;;;;;;17.40;99.90;;;;;;5114811;28;19977;-75
2021/06/13 09:02:31;;;;;;;;;;;17.40;99.90;;;;;;5117071;28;19903;-75
2021/06/13 09:04:56;;;;;;;;;;;17.50;99.90;;;;;;5113201;28;19946;-75
2021/06/13 09:07:23;;;;;;;;;;;17.50;99.90;;;;;;5114039;28;19908;-75
2021/06/13 09:09:49;;;;;;;;;;;17.70;99.90;;;;;;5114081;28;19911;-75
2021/06/13 09:12:16;;;;;;;;;;;17.70;99.90;;;;;;5113438;28;20277;-75
2021/06/13 09:14:43;;;;;;;;;;;17.80;99.90;;;;;;5113939;28;20006;-76
2021/06/13 09:17:12;;;;;;;;;;;17.90;99.90;;;;;;5113921;28;20370;-75
2021/06/13 09:19:58;;;;;;;;;;;17.90;99.90;;;;;;5113279;28;19904;-76
2021/06/13 09:22:23;;;;;;;;;;;18.00;99.90;;;;;;5113976;28;19954;-75
2021/06/13 09:25:02;;;;;;;;;;;18.00;99.90;;;;;;5113461;28;20379;-75
2021/06/13 09:27:28;;;;;;;;;;;18.00;99.90;;;;;;5113904;28;19904;-75
2021/06/13 09:29:53;;;;;;;;;;;18.20;99.90;;;;;;5113828;28;19911;-75
2021/06/13 09:32:19;;;;;;;;;;;18.30;99.90;;;;;;5113290;28;19990;-75
2021/06/13 09:34:44;;;;;;;;;;;18.30;99.90;;;;;;5113854;28;19911;-76
2021/06/13 09:37:10;;;;;;;;;;;18.40;99.90;;;;;;5114076;28;19903;-76
2021/06/13 09:39:35;;;;;;;;;;;18.50;99.90;;;;;;5112754;28;19926;-76
2021/06/13 09:42:08;;;;;;;;;;;18.60;99.90;;;;;;5113486;28;19935;-77
2021/06/13 09:44:35;;;;;;;;;;;18.60;99.90;;;;;;5113667;28;20241;-74
2021/06/13 09:47:03;;;;;;;;;;;18.70;99.90;;;;;;5113251;28;19927;-76
2021/06/13 09:49:42;;;;;;;;;;;18.80;99.90;;;;;;5113818;28;19965;-76
2021/06/13 09:52:08;;;;;;;;;;;18.80;99.90;;;;;;5113851;28;19904;-76
2021/06/13 09:54:34;;;;;;;;;;;18.90;99.90;;;;;;5112941;28;19922;-76
2021/06/13 09:57:04;;;;;;;;;;;18.90;99.90;;;;;;5113716;28;19908;-76
2021/06/13 09:59:34;;;;;;;;;;;18.90;99.90;;;;;;5113326;28;20278;-77
2021/06/13 10:02:00;;;;;;;;;;;18.90;99.90;;;;;;5114503;28;19914;-76
2021/06/13 10:04:29;;;;;;;;;;;19.10;99.90;;;;;;5119987;28;20344;-75
2021/06/13 10:06:59;;;;;;;;;;;19.20;99.90;;;;;;5119647;28;19976;-76
2021/06/13 10:09:40;;;;;;;;;;;19.30;99.90;;;;;;5120172;28;19908;-75
2021/06/13 10:12:07;;;;;;;;;;;19.40;99.90;;;;;;5120239;28;20303;-75
2021/06/13 10:14:33;;;;;;;;;;;19.40;99.90;;;;;;5119024;28;20375;-75
2021/06/13 10:16:59;;;;;;;;;;;19.20;99.90;;;;;;5119707;28;19903;-75
2021/06/13 10:19:27;;;;;;;;;;;19.20;99.90;;;;;;5119854;28;19908;-75
2021/06/13 10:21:53;;;;;;;;;;;19.40;99.90;;;;;;5119059;28;19923;-75
2021/06/13 10:24:20;;;;;;;;;;;19.50;99.90;;;;;;5119907;28;19907;-75
2021/06/13 10:26:47;;;;;;;;;;;19.60;99.90;;;;;;5119722;28;19910;-75
2021/06/13 10:29:14;;;;;;;;;;;19.70;99.60;;;;;;5119052;28;19903;-75
2021/06/13 10:31:42;;;;;;;;;;;19.80;99.40;;;;;;5119920;28;19929;-76
2021/06/13 10:34:07;;;;;;;;;;;19.90;99.50;;;;;;5119775;28;19965;-76
2021/06/13 10:36:34;;;;;;;;;;;19.80;98.60;;;;;;5118855;28;20263;-75
2021/06/13 10:39:00;;;;;;;;;;;19.80;98.80;;;;;;5119538;28;19907;-76
2021/06/13 10:41:25;;;;;;;;;;;19.90;99.00;;;;;;5119763;28;19911;-76
2021/06/13 10:43:57;;;;;;;;;;;19.90;99.30;;;;;;5118974;28;19913;-76
2021/06/13 10:46:25;;;;;;;;;;;19.90;99.50;;;;;;5119710;28;19903;-75
2021/06/13 10:48:51;;;;;;;;;;;19.90;99.10;;;;;;5119031;28;19931;-76
2021/06/13 10:51:34;;;;;;;;;;;19.90;98.90;;;;;;5119688;28;20359;-76
2021/06/13 10:54:18;;;;;;;;;;;20.00;98.60;;;;;;5126618;28;19955;-74
2021/06/13 10:56:43;;;;;;;;;;;19.80;97.90;;;;;;5119413;28;19904;-76
2021/06/13 10:59:15;;;;;;;;;;;19.90;98.20;;;;;;5119356;28;19907;-75
2021/06/13 11:02:18;;;;;;;;;;;19.90;98.20;;;;;;5119290;28;20235;-75
2021/06/13 11:04:45;;;;;;;;;;;20.10;97.80;;;;;;5060240;28;19904;-76
2021/06/13 11:07:12;;;;;;;;;;;20.30;97.70;;;;;;5108199;28;19903;-75
2021/06/13 11:10:07;;;;;;;;;;;20.50;97.70;;;;;;5128701;28;19903;-75
2021/06/13 11:12:39;;;;;;;;;;;20.60;97.30;;;;;;5119297;28;19904;-76
2021/06/13 11:15:05;;;;;;;;;;;20.80;97.10;;;;;;5116679;28;19911;-74
2021/06/13 11:17:49;;;;;;;;;;;21.00;95.90;;;;;;5115352;28;19972;-74
2021/06/13 11:20:27;;;;;;;;;;;21.00;95.50;;;;;;5116270;28;19904;-76
2021/06/13 11:22:52;;;;;;;;;;;20.80;94.90;;;;;;5115934;28;19904;-76
2021/06/13 11:25:19;;;;;;;;;;;20.80;95.00;;;;;;5115942;28;19995;-75
2021/06/13 11:28:03;;;;;;;;;;;20.80;95.10;;;;;;5116218;28;20352;-75
2021/06/13 11:30:29;;;;;;;;;;;20.80;95.60;;;;;;5115810;28;19907;-74
2021/06/13 11:32:56;;;;;;;;;;;20.90;95.00;;;;;;5115707;28;19943;-76
2021/06/13 11:35:26;;;;;;;;;;;21.00;95.20;;;;;;5116137;28;20002;-76
2021/06/13 11:38:10;;;;;;;;;;;21.00;94.70;;;;;;5116082;28;19904;-75
2021/06/13 11:40:36;;;;;;;;;;;21.10;93.70;;;;;;5115118;28;19957;-76
2021/06/13 11:43:09;;;;;;;;;;;21.00;94.20;;;;;;5115742;28;19904;-76
2021/06/13 11:45:35;;;;;;;;;;;21.00;93.90;;;;;;5115123;28;19949;-76
2021/06/13 11:48:20;;;;;;;;;;;21.10;94.20;;;;;;5115967;28;19904;-76
2021/06/13 11:51:03;;;;;;;;;;;21.20;94.00;;;;;;5115622;28;19956;-76
2021/06/13 11:53:48;;;;;;;;;;;21.20;93.60;;;;;;5114187;28;19923;-76
2021/06/13 11:56:31;;;;;;;;;;;21.30;93.90;;;;;;5115428;28;19961;-76
2021/06/13 11:59:17;;;;;;;;;;;21.50;94.00;;;;;;5115391;28;20275;-76
2021/06/13 12:01:47;;;;;;;;;;;21.70;93.00;;;;;;5114761;28;20363;-76
2021/06/13 12:04:14;;;;;;;;;;;21.80;93.00;;;;;;5115869;28;19923;-75
2021/06/13 12:06:40;;;;;;;;;;;22.10;92.90;;;;;;5114863;28;19914;-74
2021/06/13 12:09:07;;;;;;;;;;;22.20;92.30;;;;;;5115384;28;19958;-76
2021/06/13 12:11:37;;;;;;;;;;;22.20;91.80;;;;;;5115478;28;20369;-76
2021/06/13 12:14:16;;;;;;;;;;;22.20;91.50;;;;;;5114731;28;20275;-76
2021/06/13 12:16:42;;;;;;;;;;;22.00;91.10;;;;;;5116038;28;19903;-76
2021/06/13 12:19:08;;;;;;;;;;;21.80;91.50;;;;;;5115256;28;19904;-76
2021/06/13 12:21:34;;;;;;;;;;;22.00;91.50;;;;;;5114960;28;19910;-75
2021/06/13 12:24:21;;;;;;;;;;;22.00;91.50;;;;;;5115580;28;20351;-75
2021/06/13 12:29:31;;;;;;;;;;;22.40;90.70;;;;;;5114761;28;19910;-74
2021/06/13 12:32:09;;;;;;;;;;;22.40;90.20;;;;;;5114994;28;19904;-75
2021/06/13 12:34:35;;;;;;;;;;;22.20;90.00;;;;;;5114357;28;20403;-76
2021/06/13 12:37:00;;;;;;;;;;;22.30;90.50;;;;;;5114928;28;19911;-74
2021/06/13 12:39:27;;;;;;;;;;;22.40;91.00;;;;;;5114971;28;19910;-75
2021/06/13 12:41:53;;;;;;;;;;;22.60;90.10;;;;;;5114179;28;19948;-76
2021/06/13 12:44:19;;;;;;;;;;;22.70;90.10;;;;;;5114567;28;19903;-76
2021/06/13 12:46:44;;;;;;;;;;;22.80;89.40;;;;;;5114814;28;19911;-76
2021/06/13 12:49:10;;;;;;;;;;;22.90;89.50;;;;;;5114224;28;20392;-76
2021/06/13 12:51:36;;;;;;;;;;;23.00;89.50;;;;;;5114793;28;19914;-75
2021/06/13 12:54:23;;;;;;;;;;;23.30;90.10;;;;;;5113955;28;20013;-74
2021/06/13 12:56:48;;;;;;;;;;;23.40;87.60;;;;;;5113546;28;19904;-75
2021/06/13 12:59:14;;;;;;;;;;;23.70;88.10;;;;;;5114771;28;19911;-75
2021/06/13 13:01:41;;;;;;;;;;;23.90;86.70;;;;;;5118048;28;19912;-76
2021/06/13 13:04:06;;;;;;;;;;;24.10;84.80;;;;;;5115060;28;19939;-75
2021/06/13 13:06:45;;;;;;;;;;;24.30;84.20;;;;;;5114596;28;19911;-76
2021/06/13 13:09:11;;;;;;;;;;;24.50;83.70;;;;;;5114683;28;19907;-76
2021/06/13 13:11:41;;;;;;;;;;;24.70;82.70;;;;;;5115004;28;19904;-76
2021/06/13 13:14:08;;;;;;;;;;;24.90;83.30;;;;;;5115804;28;19964;-76
2021/06/13 13:16:34;;;;;;;;;;;25.00;81.20;;;;;;5119654;28;19904;-75
2021/06/13 13:19:01;;;;;;;;;;;24.90;80.20;;;;;;5116217;28;20513;-74
2021/06/13 13:21:39;;;;;;;;;;;24.90;81.50;;;;;;5114225;28;19904;-75
2021/06/13 13:24:07;;;;;;;;;;;24.90;78.20;;;;;;5113370;28;19903;-75
2021/06/13 13:26:33;;;;;;;;;;;24.70;79.40;;;;;;5114284;28;20271;-76
2021/06/13 13:29:01;;;;;;;;;;;24.70;79.80;;;;;;5114389;28;19990;-75
2021/06/13 13:31:28;;;;;;;;;;;24.80;78.90;;;;;;5113140;28;19912;-75
2021/06/13 13:33:56;;;;;;;;;;;25.00;80.00;;;;;;5114127;28;20287;-75
2021/06/13 13:36:29;;;;;;;;;;;25.20;79.10;;;;;;5113687;28;20415;-75
2021/06/13 13:38:56;;;;;;;;;;;25.20;78.00;;;;;;5112433;28;19918;-75
2021/06/13 13:41:22;;;;;;;;;;;25.40;78.20;;;;;;5113772;28;19904;-75
2021/06/13 13:43:57;;;;;;;;;;;25.70;78.00;;;;;;5113661;28;19904;-75
2021/06/13 13:46:31;;;;;;;;;;;25.80;75.30;;;;;;5112877;28;19910;-76
2021/06/13 13:48:57;;;;;;;;;;;25.70;73.40;;;;;;5113819;28;20002;-76
2021/06/13 13:51:24;;;;;;;;;;;25.80;72.20;;;;;;5113687;28;20348;-76
2021/06/13 13:53:52;;;;;;;;;;;25.80;72.10;;;;;;5112561;28;19919;-76
2021/06/13 13:56:20;;;;;;;;;;;25.80;72.60;;;;;;5113756;28;19939;-76
2021/06/13 13:58:47;;;;;;;;;;;25.90;72.60;;;;;;5112902;28;19918;-76
2021/06/13 14:01:13;;;;;;;;;;;25.70;71.50;;;;;;5114061;28;19960;-75
2021/06/13 14:03:38;;;;;;;;;;;25.70;71.30;;;;;;5113434;28;19967;-74
2021/06/13 14:06:07;;;;;;;;;;;25.60;71.30;;;;;;5112953;28;19904;-74
2021/06/13 14:08:40;;;;;;;;;;;25.50;71.20;;;;;;5113371;28;19994;-75
2021/06/13 14:11:05;;;;;;;;;;;25.40;71.90;;;;;;5113390;28;19908;-75
2021/06/13 14:13:31;;;;;;;;;;;25.40;70.60;;;;;;5112536;28;20367;-74
2021/06/13 14:15:56;;;;;;;;;;;25.50;71.70;;;;;;5113426;28;19903;-74
2021/06/13 14:18:22;;;;;;;;;;;25.80;71.60;;;;;;5113554;28;20335;-75
2021/06/13 14:20:47;;;;;;;;;;;26.10;71.10;;;;;;5112506;28;19949;-74
2021/06/13 14:23:13;;;;;;;;;;;26.10;69.90;;;;;;5113142;28;19904;-73